createdAt,value
2024-05-09T00:02:49.116Z,101034.59
2024-05-09T00:05:51.694Z,101034.69
2024-05-09T00:08:54.200Z,101034.31
2024-05-09T00:11:56.977Z,101035.09
2024-05-09T00:14:59.504Z,101037.38
2024-05-09T00:18:02.384Z,101035.06
2024-05-09T00:21:06.939Z,101032.38
2024-05-09T00:24:09.529Z,101023.53
2024-05-09T00:27:13.343Z,101022.75
2024-05-09T00:30:24.193Z,101021.28
2024-05-09T00:33:34.046Z,101023.59
2024-05-09T00:36:36.673Z,101020.56
2024-05-09T00:39:39.263Z,101023.59
2024-05-09T00:42:41.708Z,101020.56
2024-05-09T00:45:44.415Z,101022.09
2024-05-09T00:48:47.240Z,101028.34
2024-05-09T00:51:50.298Z,101026.84
2024-05-09T00:54:52.803Z,101026.53
2024-05-09T00:57:55.262Z,101027.72
2024-05-09T01:00:58.194Z,101026.16
2024-05-09T01:04:00.802Z,101025.81
2024-05-09T01:07:03.482Z,101028.94
2024-05-09T01:10:11.496Z,101031.94
2024-05-09T01:13:16.550Z,101028.19
2024-05-09T01:16:19.053Z,101032.81
2024-05-09T01:19:28.142Z,101029.34
2024-05-09T01:22:30.937Z,101030.47
2024-05-09T01:25:33.487Z,101025.47
2024-05-09T01:28:36.011Z,101026.25
2024-05-09T01:31:38.559Z,101028.13
2024-05-09T01:34:41.099Z,101029.72
2024-05-09T01:37:43.723Z,101033.50
2024-05-09T01:40:47.169Z,101026.56
2024-05-09T01:43:49.812Z,101028.50
2024-05-09T01:46:52.402Z,101020.88
2024-05-09T01:49:54.974Z,101024.69
2024-05-09T01:52:57.558Z,101022.00
2024-05-09T01:56:00.065Z,101023.91
2024-05-09T01:59:02.653Z,101024.25
2024-05-09T02:02:05.372Z,101018.53
2024-05-09T02:05:08.326Z,101024.25
2024-05-09T02:08:17.605Z,101020.38
2024-05-09T02:11:20.720Z,101025.38
2024-05-09T02:14:23.472Z,101022.59
2024-05-09T02:17:26.251Z,101024.03
2024-05-09T02:20:35.538Z,101024.72
2024-05-09T02:23:39.337Z,101020.34
2024-05-09T02:26:41.872Z,101023.31
2024-05-09T02:29:45.305Z,101028.63
2024-05-09T02:32:48.070Z,101027.00
2024-05-09T02:35:50.718Z,101023.88
2024-05-09T02:38:53.263Z,101028.47
2024-05-09T02:41:55.708Z,101026.91
2024-05-09T02:44:58.250Z,101028.06
2024-05-09T02:48:01.481Z,101028.81
2024-05-09T02:51:04.922Z,101031.16
2024-05-09T02:54:07.948Z,101028.47
2024-05-09T02:57:10.500Z,101027.69
2024-05-09T03:00:19.034Z,101025.78
2024-05-09T03:03:28.767Z,101024.63
2024-05-09T03:06:31.394Z,101022.31
2024-05-09T03:09:33.971Z,101022.69
2024-05-09T03:12:39.063Z,101022.22
2024-05-09T03:15:42.141Z,101017.66
2024-05-09T03:18:45.014Z,101028.38
2024-05-09T03:21:47.578Z,101028.75
2024-05-09T03:24:50.040Z,101027.19
2024-05-09T03:27:53.650Z,101024.59
2024-05-09T03:30:56.139Z,101026.06
2024-05-09T03:33:58.743Z,101019.50
2024-05-09T03:37:01.310Z,101027.19
2024-05-09T03:40:05.596Z,101029.16
2024-05-09T03:43:09.584Z,101031.56
2024-05-09T03:46:12.056Z,101037.44
2024-05-09T03:49:14.677Z,101039.06
2024-05-09T03:52:17.261Z,101021.34
2024-05-09T03:55:20.006Z,101028.53
2024-05-09T03:58:22.601Z,101029.31
2024-05-09T04:01:30.210Z,101028.69
2024-05-09T04:04:32.890Z,101036.13
2024-05-09T04:07:37.601Z,101040.00
2024-05-09T04:10:40.867Z,101036.63
2024-05-09T04:13:43.654Z,101043.19
2024-05-09T04:16:46.366Z,101043.72
2024-05-09T04:19:48.998Z,101050.81
2024-05-09T04:22:51.537Z,101060.53
2024-05-09T04:25:54.165Z,101053.34
2024-05-09T04:28:56.686Z,101057.34
2024-05-09T04:31:59.400Z,101066.28
2024-05-09T04:35:01.916Z,101070.16
2024-05-09T04:38:05.747Z,101064.88
2024-05-09T04:41:08.599Z,101069.47
2024-05-09T04:44:11.189Z,101069.09
2024-05-09T04:47:14.071Z,101070.63
2024-05-09T04:50:24.672Z,101076.03
2024-05-09T04:53:32.047Z,101077.09
2024-05-09T04:56:34.609Z,101082.47
2024-05-09T04:59:37.145Z,101084.69
2024-05-09T05:02:39.824Z,101084.47
2024-05-09T05:05:42.774Z,101086.84
2024-05-09T05:08:45.624Z,101085.78
2024-05-09T05:11:48.218Z,101087.97
2024-05-09T05:14:50.803Z,101084.03
2024-05-09T05:17:53.500Z,101094.63
2024-05-09T05:20:56.448Z,101091.41
2024-05-09T05:23:59.098Z,101096.31
2024-05-09T05:27:01.592Z,101092.16
2024-05-09T05:30:07.359Z,101094.38
2024-05-09T05:33:13.317Z,101091.66
2024-05-09T05:36:16.100Z,101091.59
2024-05-09T05:39:18.593Z,101100.94
2024-05-09T05:42:21.143Z,101099.13
2024-05-09T05:45:23.703Z,101097.91
2024-05-09T05:48:26.320Z,101106.47
2024-05-09T05:51:28.905Z,101100.63
2024-05-09T05:54:31.483Z,101102.63
2024-05-09T05:57:34.326Z,101105.38
2024-05-09T06:00:39.298Z,101105.78
2024-05-09T06:03:43.346Z,101115.19
2024-05-09T06:06:45.942Z,101116.28
2024-05-09T06:09:49.968Z,101119.16
2024-05-09T06:12:52.955Z,101117.16
2024-05-09T06:15:55.435Z,101123.97
2024-05-09T06:18:58.101Z,101127.25
2024-05-09T06:22:00.834Z,101131.06
2024-05-09T06:25:03.369Z,101125.47
2024-05-09T06:28:06.236Z,101128.16
2024-05-09T06:31:08.718Z,101127.31
2024-05-09T06:34:11.379Z,101127.81
2024-05-09T06:37:13.963Z,101127.00
2024-05-09T06:40:21.412Z,101131.22
2024-05-09T06:43:28.008Z,101120.25
2024-05-09T06:46:30.657Z,101131.00
2024-05-09T06:49:33.206Z,101131.16
2024-05-09T06:52:35.809Z,101143.97
2024-05-09T06:55:38.389Z,101142.59
2024-05-09T06:58:40.918Z,101141.44
2024-05-09T07:01:43.677Z,101144.84
2024-05-09T07:04:46.354Z,101144.69
2024-05-09T07:07:48.977Z,101142.63
2024-05-09T07:10:51.603Z,101137.81
2024-05-09T07:13:54.317Z,101138.25
2024-05-09T07:16:56.949Z,101137.56
2024-05-09T07:20:00.383Z,101138.19
2024-05-09T07:23:03.374Z,101131.47
2024-05-09T07:26:06.084Z,101129.91
2024-05-09T07:29:08.633Z,101119.59
2024-05-09T07:32:11.462Z,101127.69
2024-05-09T07:35:14.086Z,101122.94
2024-05-09T07:38:16.704Z,101118.97
2024-05-09T07:41:19.297Z,101126.19
2024-05-09T07:44:21.915Z,101126.31
2024-05-09T07:48:56.833Z,101114.53
2024-05-09T07:53:54.885Z,101121.16
2024-05-09T07:56:59.864Z,101123.75
2024-05-09T08:00:02.505Z,101122.94
2024-05-09T08:03:05.267Z,101111.84
2024-05-09T08:06:07.774Z,101112.56
2024-05-09T08:09:13.907Z,101119.84
2024-05-09T08:12:21.749Z,101112.22
2024-05-09T08:15:24.229Z,101110.00
2024-05-09T08:18:26.869Z,101111.13
2024-05-09T08:21:30.082Z,101107.38
2024-05-09T08:24:33.761Z,101108.78
2024-05-09T08:27:37.132Z,101107.69
2024-05-09T08:30:39.888Z,101106.50
2024-05-09T08:33:47.228Z,101100.19
2024-05-09T08:36:50.189Z,101101.25
2024-05-09T08:39:52.798Z,101108.69
2024-05-09T08:42:56.513Z,101103.34
2024-05-09T08:45:59.473Z,101099.59
2024-05-09T08:49:03.161Z,101102.06
2024-05-09T08:52:06.159Z,101103.16
2024-05-09T08:55:08.837Z,101106.50
2024-05-09T08:58:16.609Z,101107.78
2024-05-09T09:01:19.945Z,101103.91
2024-05-09T09:04:23.170Z,101103.31
2024-05-09T09:07:26.364Z,101098.31
2024-05-09T09:10:32.210Z,101097.44
2024-05-09T09:13:35.646Z,101099.31
2024-05-09T09:16:38.158Z,101096.03
2024-05-09T09:19:40.769Z,101101.72
2024-05-09T09:22:43.277Z,101090.06
2024-05-09T09:25:45.804Z,101085.72
2024-05-09T09:28:48.363Z,101083.13
2024-05-09T09:32:04.399Z,101088.94
2024-05-09T09:35:07.416Z,101086.53
2024-05-09T09:38:10.911Z,101084.91
2024-05-09T09:41:13.860Z,101093.78
2024-05-09T09:44:16.352Z,101086.69
2024-05-09T09:47:19.127Z,101080.59
2024-05-09T09:50:27.876Z,101087.50
2024-05-09T09:53:36.600Z,101086.75
2024-05-09T09:56:39.406Z,101081.53
2024-05-09T09:59:43.585Z,101082.00
2024-05-09T10:02:46.103Z,101084.38
2024-05-09T10:05:48.724Z,101083.06
2024-05-09T10:08:51.285Z,101085.16
2024-05-09T10:11:59.744Z,101073.78
2024-05-09T10:15:09.702Z,101081.66
2024-05-09T10:18:12.514Z,101075.56
2024-05-09T10:21:18.896Z,101066.09
2024-05-09T10:24:21.396Z,101055.25
2024-05-09T10:27:27.981Z,101064.78
2024-05-09T10:30:35.809Z,101058.00
2024-05-09T10:33:40.225Z,101053.06
2024-05-09T10:36:45.988Z,101052.56
2024-05-09T10:39:48.550Z,101047.84
2024-05-09T10:42:51.173Z,101032.53
2024-05-09T10:45:53.732Z,101043.13
2024-05-09T10:48:56.351Z,101037.09
2024-05-09T10:51:58.963Z,101032.34
2024-05-09T10:55:03.084Z,101042.03
2024-05-09T10:58:17.675Z,101035.34
2024-05-09T11:01:20.708Z,101041.44
2024-05-09T11:04:23.353Z,101045.19
2024-05-09T11:07:25.980Z,101031.16
2024-05-09T11:10:33.738Z,101030.94
2024-05-09T11:13:38.348Z,101031.06
2024-05-09T11:16:40.873Z,101035.94
2024-05-09T11:19:45.105Z,101024.25
2024-05-09T11:22:47.612Z,101026.03
2024-05-09T11:25:51.074Z,101019.28
2024-05-09T11:28:53.630Z,101021.34
2024-05-09T11:31:56.174Z,101011.09
2024-05-09T11:34:58.746Z,101015.88
2024-05-09T11:38:01.307Z,101016.69
2024-05-09T11:41:04.601Z,101003.13
2024-05-09T11:44:07.269Z,101003.88
2024-05-09T11:47:09.797Z,101005.44
2024-05-09T11:51:07.333Z,101008.69
2024-05-09T11:54:09.966Z,100989.03
2024-05-09T11:57:12.535Z,101006.50
2024-05-09T12:01:27.702Z,100992.03
2024-05-09T12:04:30.799Z,100988.56
2024-05-09T12:07:33.532Z,100984.50
2024-05-09T12:10:36.942Z,100981.50
2024-05-09T12:13:40.239Z,100986.50
2024-05-09T12:17:50.931Z,100973.19
2024-05-09T12:20:53.850Z,100967.47
2024-05-09T12:23:56.828Z,100985.63
2024-05-09T12:26:59.294Z,100984.25
2024-05-09T12:30:01.848Z,100978.25
2024-05-09T12:33:04.789Z,100977.69
2024-05-09T12:36:07.784Z,100970.97
2024-05-09T12:39:10.275Z,100968.84
2024-05-09T12:42:22.303Z,100960.00
2024-05-09T12:45:29.330Z,100961.78
2024-05-09T12:48:32.046Z,100960.91
2024-05-09T12:51:34.611Z,100954.50
2024-05-09T12:54:37.238Z,100948.22
2024-05-09T12:57:39.836Z,100950.66
2024-05-09T13:00:42.605Z,100953.91
2024-05-09T13:03:45.385Z,100951.28
2024-05-09T13:06:48.945Z,100951.28
2024-05-09T13:09:51.489Z,100947.94
2024-05-09T13:15:34.969Z,100938.44
2024-05-09T13:20:55.051Z,100939.66
2024-05-09T13:25:27.663Z,100939.13
2024-05-09T13:28:32.404Z,100930.88
2024-05-09T13:31:35.087Z,100927.97
2024-05-09T13:34:37.717Z,100929.00
2024-05-09T13:37:40.212Z,100921.25
2024-05-09T13:40:43.034Z,100922.88
2024-05-09T13:43:45.571Z,100924.09
2024-05-09T13:46:48.141Z,100916.81
2024-05-09T13:49:50.754Z,100917.13
2024-05-09T13:52:53.304Z,100912.94
2024-05-09T13:55:55.918Z,100914.75
2024-05-09T13:58:58.478Z,100909.09
2024-05-09T14:02:01.287Z,100911.78
2024-05-09T14:05:04.044Z,100907.00
2024-05-09T14:08:06.889Z,100899.84
2024-05-09T14:11:09.431Z,100891.19
2024-05-09T14:14:11.904Z,100900.03
2024-05-09T14:17:14.482Z,100904.91
2024-05-09T14:20:27.823Z,100896.69
2024-05-09T14:23:33.822Z,100901.25
2024-05-09T14:27:20.879Z,100908.47
2024-05-09T14:30:30.991Z,100900.44
2024-05-09T14:33:39.197Z,100895.00
2024-05-09T14:36:41.820Z,100891.63
2024-05-09T14:39:44.344Z,100894.16
2024-05-09T14:42:46.854Z,100887.31
2024-05-09T14:45:49.441Z,100889.28
2024-05-09T14:48:52.096Z,100888.09
2024-05-09T14:51:54.899Z,100889.16
2024-05-09T14:58:02.063Z,100888.63
2024-05-09T15:01:04.804Z,100887.84
2024-05-09T15:04:07.474Z,100885.66
2024-05-09T15:07:11.530Z,100886.13
2024-05-09T15:10:23.681Z,100882.66
2024-05-09T15:13:34.046Z,100875.09
2024-05-09T15:16:36.695Z,100875.31
2024-05-09T15:19:39.531Z,100877.69
2024-05-09T15:22:42.128Z,100876.59
2024-05-09T15:25:44.987Z,100866.53
2024-05-09T15:28:47.592Z,100866.81
2024-05-09T15:31:50.220Z,100868.59
2024-05-09T15:34:52.714Z,100871.69
2024-05-09T15:37:55.579Z,100860.72
2024-05-09T15:40:58.160Z,100871.69
2024-05-09T15:44:00.807Z,100872.19
2024-05-09T15:47:03.420Z,100872.69
2024-05-09T15:50:11.872Z,100871.97
2024-05-09T15:53:19.694Z,100868.69
2024-05-09T15:56:22.255Z,100862.56
2024-05-09T15:59:24.756Z,100865.19
2024-05-09T16:02:27.486Z,100866.28
2024-05-09T16:05:30.206Z,100862.03
2024-05-09T16:08:32.878Z,100867.59
2024-05-09T16:11:35.383Z,100862.69
2024-05-09T16:14:37.896Z,100866.31
2024-05-09T16:17:40.999Z,100867.53
2024-05-09T16:20:45.430Z,100872.69
2024-05-09T16:23:49.684Z,100866.22
2024-05-09T16:26:52.204Z,100865.03
2024-05-09T16:29:56.114Z,100869.03
2024-05-09T16:33:27.829Z,100870.63
2024-05-09T16:36:30.713Z,100872.19
2024-05-09T16:39:33.259Z,100874.66
2024-05-09T16:42:35.847Z,100872.75
2024-05-09T16:45:41.593Z,100869.38
2024-05-09T16:48:46.550Z,100864.75
2024-05-09T16:52:58.345Z,100876.84
2024-05-09T16:56:02.284Z,100870.78
2024-05-09T16:59:05.071Z,100873.94
2024-05-09T17:02:07.658Z,100845.06
2024-05-09T17:05:10.894Z,100867.84
2024-05-09T17:08:15.529Z,100865.19
2024-05-09T17:11:18.132Z,100862.94
2024-05-09T17:14:20.746Z,100868.78
2024-05-09T17:17:23.325Z,100872.72
2024-05-09T17:20:32.555Z,100876.75
2024-05-09T17:23:38.244Z,100883.81
2024-05-09T17:26:40.763Z,100877.66
2024-05-09T17:29:43.983Z,100882.78
2024-05-09T17:32:46.586Z,100875.06
2024-05-09T17:35:50.908Z,100880.50
2024-05-09T17:38:53.456Z,100884.78
2024-05-09T17:41:55.929Z,100887.56
2024-05-09T17:44:58.473Z,100889.16
2024-05-09T17:48:01.511Z,100872.28
2024-05-09T17:51:04.722Z,100894.31
2024-05-09T17:54:07.268Z,100896.72
2024-05-09T17:57:09.870Z,100906.00
2024-05-09T18:00:17.280Z,100906.81
2024-05-09T18:03:23.834Z,100901.44
2024-05-09T18:06:26.483Z,100904.56
2024-05-09T18:09:29.001Z,100918.88
2024-05-09T18:12:31.677Z,100919.66
2024-05-09T18:15:34.526Z,100913.84
2024-05-09T18:18:37.315Z,100919.66
2024-05-09T18:21:40.497Z,100925.81
2024-05-09T18:24:43.093Z,100927.34
2024-05-09T18:27:45.849Z,100928.88
2024-05-09T18:30:48.534Z,100929.22
2024-05-09T18:33:51.688Z,100935.38
2024-05-09T18:36:55.213Z,100934.19
2024-05-09T18:39:58.034Z,100938.75
2024-05-09T18:43:01.191Z,100948.72
2024-05-09T18:46:04.903Z,100960.63
2024-05-09T18:49:07.920Z,100956.66
2024-05-09T18:52:10.681Z,100968.53
2024-05-09T18:55:14.220Z,100971.09
2024-05-09T18:58:18.727Z,100969.47
2024-05-09T19:01:21.772Z,100980.94
2024-05-09T19:04:24.811Z,100983.56
2024-05-09T19:07:28.229Z,100978.16
2024-05-09T19:10:34.634Z,100988.56
2024-05-09T19:13:38.869Z,100995.06
2024-05-09T19:16:43.632Z,100991.84
2024-05-09T19:19:46.698Z,100994.31
2024-05-09T19:22:49.686Z,101004.69
2024-05-09T19:25:52.336Z,100996.47
2024-05-09T19:28:55.713Z,101006.28
2024-05-09T19:31:58.566Z,101012.34
2024-05-09T19:35:01.889Z,101007.41
2024-05-09T19:38:05.713Z,101013.47
2024-05-09T19:41:08.727Z,101025.72
2024-05-09T19:44:12.047Z,101026.75
2024-05-09T19:47:14.889Z,101035.44
2024-05-09T19:51:15.528Z,101036.53
2024-05-09T19:54:18.571Z,101046.81
2024-05-09T19:57:21.504Z,101044.88
2024-05-09T20:00:32.503Z,101045.97
2024-05-09T20:03:39.074Z,101044.28
2024-05-09T20:06:41.945Z,101040.69
2024-05-09T20:09:44.723Z,101048.97
2024-05-09T20:12:47.667Z,101047.06
2024-05-09T20:15:50.654Z,101054.81
2024-05-09T20:18:55.898Z,101052.22
2024-05-09T20:22:00.691Z,101055.44
2024-05-09T20:25:04.253Z,101060.63
2024-05-09T20:28:09.054Z,101056.97
2024-05-09T20:31:11.737Z,101063.06
2024-05-09T20:34:14.778Z,101071.28
2024-05-09T20:37:18.590Z,101070.50
2024-05-09T20:40:29.170Z,101070.72
2024-05-09T20:43:36.562Z,101074.13
2024-05-09T20:46:39.298Z,101074.41
2024-05-09T20:49:42.007Z,101078.63
2024-05-09T20:52:44.595Z,101085.34
2024-05-09T20:55:47.418Z,101085.63
2024-05-09T20:58:49.896Z,101089.47
2024-05-09T21:01:52.622Z,101090.59
2024-05-09T21:04:55.351Z,101086.53
2024-05-09T21:07:58.013Z,101088.72
2024-05-09T21:11:00.622Z,101097.38
2024-05-09T21:14:03.178Z,101098.00
2024-05-09T21:17:05.899Z,101102.91
2024-05-09T21:20:14.414Z,101103.84
2024-05-09T21:23:20.083Z,101101.69
2024-05-09T21:26:24.020Z,101104.66
2024-05-09T21:29:26.508Z,101111.25
2024-05-09T21:32:29.113Z,101111.88
2024-05-09T21:35:31.691Z,101115.66
2024-05-09T21:38:34.159Z,101120.84
2024-05-09T21:41:36.643Z,101113.66
2024-05-09T21:44:39.185Z,101113.50
2024-05-09T21:47:41.854Z,101119.72
2024-05-09T21:50:44.403Z,101115.31
2024-05-09T21:53:46.858Z,101120.84
2024-05-09T21:56:49.400Z,101117.66
2024-05-09T21:59:51.888Z,101118.53
2024-05-09T22:02:54.451Z,101116.91
2024-05-09T22:05:57.004Z,101119.75
2024-05-09T22:08:59.491Z,101118.06
2024-05-09T22:12:02.003Z,101126.38
2024-05-09T22:15:05.477Z,101125.81
2024-05-09T22:18:09.159Z,101125.03
2024-05-09T22:21:12.550Z,101123.53
2024-05-09T22:24:15.062Z,101125.53
2024-05-09T22:27:17.561Z,101132.69
2024-05-09T22:30:24.199Z,101133.94
2024-05-09T22:33:34.774Z,101133.66
2024-05-09T22:36:37.386Z,101130.44
2024-05-09T22:39:39.984Z,101132.34
2024-05-09T22:42:42.523Z,101151.00
2024-05-09T22:45:45.184Z,101133.28
2024-05-09T22:48:47.778Z,101134.38
2024-05-09T22:51:50.508Z,101141.88
2024-05-09T22:54:53.015Z,101145.66
2024-05-09T22:57:55.718Z,101152.00
2024-05-09T23:00:58.500Z,101146.88
2024-05-09T23:04:02.307Z,101146.78
2024-05-09T23:07:04.890Z,101147.16
2024-05-09T23:10:13.387Z,101153.75
2024-05-09T23:13:20.341Z,101150.06
2024-05-09T23:16:22.950Z,101153.00
2024-05-09T23:19:25.580Z,101153.97
2024-05-09T23:22:28.105Z,101150.88
2024-05-09T23:25:30.558Z,101156.88
2024-05-09T23:28:33.121Z,101155.91
2024-05-09T23:31:35.651Z,101148.63
2024-05-09T23:34:38.269Z,101147.44
2024-05-09T23:37:40.816Z,101150.00
2024-05-09T23:40:43.744Z,101149.41
2024-05-09T23:43:46.703Z,101144.63
2024-05-09T23:46:49.298Z,101151.13
2024-05-09T23:49:51.858Z,101142.97
2024-05-09T23:52:54.374Z,101152.00
2024-05-09T23:55:56.868Z,101139.63
2024-05-09T23:58:59.354Z,101141.44
